sensor_id;sensor_type;location;lat;lon;timestamp;pressure;altitude;pressure_sealevel;temperature;humidity
44988;BME280;35735;52.226;21.254;2023-03-04T00:00:14;99985.63;;;0.11;100.00
44988;BME280;35735;52.226;21.254;2023-03-04T00:05:15;99975.94;;;0.12;100.00
44988;BME280;35735;52.226;21.254;2023-03-04T00:10:16;99983.03;;;0.13;100.00
44988;BME280;35735;52.226;21.254;2023-03-04T00:15:17;99974.06;;;0.09;100.00
44988;BME280;35735;52.226;21.254;2023-03-04T00:20:17;99978.63;;;0.13;100.00
44988;BME280;35735;52.226;21.254;2023-03-04T00:25:18;99975.12;;;0.14;100.00
44988;BME280;35735;52.226;21.254;2023-03-04T00:30:18;99969.94;;;0.17;100.00
44988;BME280;35735;52.226;21.254;2023-03-04T00:35:19;99965.47;;;0.16;100.00
44988;BME280;35735;52.226;21.254;2023-03-04T00:40:19;99953.94;;;0.16;100.00
44988;BME280;35735;52.226;21.254;2023-03-04T00:45:20;99955.72;;;0.15;100.00
44988;BME280;35735;52.226;21.254;2023-03-04T00:50:21;99946.03;;;0.17;100.00
44988;BME280;35735;52.226;21.254;2023-03-04T00:55:21;99933.88;;;0.24;100.00
44988;BME280;35735;52.226;21.254;2023-03-04T01:00:22;99926.84;;;0.26;100.00
44988;BME280;35735;52.226;21.254;2023-03-04T01:05:22;99916.25;;;0.26;100.00
44988;BME280;35735;52.226;21.254;2023-03-04T01:10:23;99903.03;;;0.28;100.00
44988;BME280;35735;52.226;21.254;2023-03-04T01:15:23;99898.72;;;0.31;100.00
44988;BME280;35735;52.226;21.254;2023-03-04T01:20:24;99873.09;;;0.33;100.00
44988;BME280;35735;52.226;21.254;2023-03-04T01:25:25;99871.37;;;0.34;100.00
44988;BME280;35735;52.226;21.254;2023-03-04T01:30:25;99852.84;;;0.35;100.00
44988;BME280;35735;52.226;21.254;2023-03-04T01:35:26;99836.00;;;0.35;100.00
44988;BME280;35735;52.226;21.254;2023-03-04T01:40:27;99821.78;;;0.33;100.00
44988;BME280;35735;52.226;21.254;2023-03-04T01:45:28;99804.91;;;0.31;100.00
44988;BME280;35735;52.226;21.254;2023-03-04T01:50:32;99785.28;;;0.26;100.00
44988;BME280;35735;52.226;21.254;2023-03-04T01:55:33;99797.63;;;0.24;100.00
44988;BME280;35735;52.226;21.254;2023-03-04T02:00:34;99794.03;;;0.23;100.00
44988;BME280;35735;52.226;21.254;2023-03-04T02:05:36;99782.72;;;0.29;100.00
44988;BME280;35735;52.226;21.254;2023-03-04T02:10:39;99772.94;;;0.28;100.00
44988;BME280;35735;52.226;21.254;2023-03-04T02:15:43;99764.16;;;0.29;100.00
44988;BME280;35735;52.226;21.254;2023-03-04T02:20:53;99766.69;;;0.26;100.00
44988;BME280;35735;52.226;21.254;2023-03-04T02:26:34;99760.50;;;0.25;100.00
44988;BME280;35735;52.226;21.254;2023-03-04T02:31:37;99752.38;;;0.21;100.00
44988;BME280;35735;52.226;21.254;2023-03-04T02:36:40;99755.03;;;0.21;100.00
44988;BME280;35735;52.226;21.254;2023-03-04T02:41:41;99768.47;;;0.27;100.00
44988;BME280;35735;52.226;21.254;2023-03-04T02:46:41;99758.06;;;0.33;100.00
44988;BME280;35735;52.226;21.254;2023-03-04T02:51:42;99764.34;;;0.36;100.00
44988;BME280;35735;52.226;21.254;2023-03-04T02:56:48;99748.47;;;0.38;100.00
44988;BME280;35735;52.226;21.254;2023-03-04T03:01:50;99737.91;;;0.40;100.00
44988;BME280;35735;52.226;21.254;2023-03-04T03:06:50;99733.63;;;0.45;100.00
44988;BME280;35735;52.226;21.254;2023-03-04T03:11:51;99731.81;;;0.42;100.00
44988;BME280;35735;52.226;21.254;2023-03-04T03:16:52;99723.00;;;0.45;100.00
44988;BME280;35735;52.226;21.254;2023-03-04T03:21:52;99723.06;;;0.46;100.00
44988;BME280;35735;52.226;21.254;2023-03-04T03:26:53;99720.50;;;0.49;100.00
44988;BME280;35735;52.226;21.254;2023-03-04T03:31:53;99724.09;;;0.51;100.00
44988;BME280;35735;52.226;21.254;2023-03-04T03:36:54;99708.25;;;0.54;100.00
44988;BME280;35735;52.226;21.254;2023-03-04T03:41:54;99703.97;;;0.60;100.00
44988;BME280;35735;52.226;21.254;2023-03-04T03:46:56;99690.88;;;0.66;100.00
44988;BME280;35735;52.226;21.254;2023-03-04T03:51:58;99688.22;;;0.66;100.00
44988;BME280;35735;52.226;21.254;2023-03-04T03:56:59;99688.22;;;0.66;100.00
44988;BME280;35735;52.226;21.254;2023-03-04T04:02:00;99672.38;;;0.69;100.00
44988;BME280;35735;52.226;21.254;2023-03-04T04:07:01;99674.31;;;0.76;100.00
44988;BME280;35735;52.226;21.254;2023-03-04T04:12:04;99680.56;;;0.78;100.00
44988;BME280;35735;52.226;21.254;2023-03-04T04:17:05;99663.97;;;0.85;100.00
44988;BME280;35735;52.226;21.254;2023-03-04T04:22:07;99676.47;;;0.89;100.00
44988;BME280;35735;52.226;21.254;2023-03-04T04:27:13;99674.81;;;0.95;100.00
44988;BME280;35735;52.226;21.254;2023-03-04T04:32:14;99670.47;;;0.98;100.00
44988;BME280;35735;52.226;21.254;2023-03-04T04:37:14;99672.44;;;1.04;100.00
44988;BME280;35735;52.226;21.254;2023-03-04T04:42:15;99666.41;;;1.11;100.00
44988;BME280;35735;52.226;21.254;2023-03-04T04:47:15;99668.97;;;1.08;100.00
44988;BME280;35735;52.226;21.254;2023-03-04T04:52:16;99667.19;;;1.08;100.00
44988;BME280;35735;52.226;21.254;2023-03-04T04:57:16;99656.63;;;1.10;100.00
44988;BME280;35735;52.226;21.254;2023-03-04T05:02:17;99654.94;;;1.14;100.00
44988;BME280;35735;52.226;21.254;2023-03-04T05:07:18;99650.66;;;1.20;100.00
44988;BME280;35735;52.226;21.254;2023-03-04T05:12:18;99657.97;;;1.27;100.00
44988;BME280;35735;52.226;21.254;2023-03-04T05:17:19;99641.09;;;1.27;100.00
44988;BME280;35735;52.226;21.254;2023-03-04T05:22:19;99626.97;;;1.29;100.00
44988;BME280;35735;52.226;21.254;2023-03-04T05:27:20;99637.63;;;1.29;100.00
44988;BME280;35735;52.226;21.254;2023-03-04T05:32:20;99624.31;;;1.29;100.00
44988;BME280;35735;52.226;21.254;2023-03-04T05:37:22;99625.34;;;1.35;100.00
44988;BME280;35735;52.226;21.254;2023-03-04T05:42:22;99621.88;;;1.37;100.00
44988;BME280;35735;52.226;21.254;2023-03-04T05:47:23;99621.09;;;1.43;100.00
44988;BME280;35735;52.226;21.254;2023-03-04T05:52:24;99623.72;;;1.41;100.00
44988;BME280;35735;52.226;21.254;2023-03-04T05:57:24;99624.56;;;1.39;100.00
44988;BME280;35735;52.226;21.254;2023-03-04T06:02:25;99617.44;;;1.38;100.00
44988;BME280;35735;52.226;21.254;2023-03-04T06:07:27;99619.25;;;1.39;100.00
44988;BME280;35735;52.226;21.254;2023-03-04T06:12:28;99598.00;;;1.42;100.00
44988;BME280;35735;52.226;21.254;2023-03-04T06:17:29;99586.44;;;1.40;100.00
44988;BME280;35735;52.226;21.254;2023-03-04T06:22:29;99590.03;;;1.42;100.00
44988;BME280;35735;52.226;21.254;2023-03-04T06:27:30;99583.88;;;1.43;100.00
44988;BME280;35735;52.226;21.254;2023-03-04T06:32:31;99580.38;;;1.44;100.00
44988;BME280;35735;52.226;21.254;2023-03-04T06:37:32;99574.16;;;1.45;100.00
44988;BME280;35735;52.226;21.254;2023-03-04T06:42:33;99580.38;;;1.44;100.00
44988;BME280;35735;52.226;21.254;2023-03-04T06:47:34;99575.09;;;1.47;100.00
44988;BME280;35735;52.226;21.254;2023-03-04T06:52:35;99576.03;;;1.49;100.00
44988;BME280;35735;52.226;21.254;2023-03-04T06:57:35;99575.22;;;1.53;100.00
44988;BME280;35735;52.226;21.254;2023-03-04T07:02:36;99561.16;;;1.57;100.00
44988;BME280;35735;52.226;21.254;2023-03-04T07:07:36;99567.37;;;1.58;100.00
44988;BME280;35735;52.226;21.254;2023-03-04T07:12:37;99569.22;;;1.62;100.00
44988;BME280;35735;52.226;21.254;2023-03-04T07:17:38;99581.66;;;1.63;100.00
44988;BME280;35735;52.226;21.254;2023-03-04T07:22:38;99584.38;;;1.64;100.00
44988;BME280;35735;52.226;21.254;2023-03-04T07:27:39;99575.38;;;1.59;100.00
44988;BME280;35735;52.226;21.254;2023-03-04T07:32:39;99578.97;;;1.61;100.00
44988;BME280;35735;52.226;21.254;2023-03-04T07:37:40;99566.66;;;1.66;100.00
44988;BME280;35735;52.226;21.254;2023-03-04T07:42:40;99561.34;;;1.66;100.00
44988;BME280;35735;52.226;21.254;2023-03-04T07:47:42;99561.41;;;1.70;100.00
44988;BME280;35735;52.226;21.254;2023-03-04T07:52:45;99570.41;;;1.75;100.00
44988;BME280;35735;52.226;21.254;2023-03-04T07:57:47;99554.50;;;1.78;100.00
44988;BME280;35735;52.226;21.254;2023-03-04T08:02:47;99551.00;;;1.80;100.00
44988;BME280;35735;52.226;21.254;2023-03-04T08:07:48;99543.00;;;1.80;100.00
44988;BME280;35735;52.226;21.254;2023-03-04T08:12:49;99551.09;;;1.85;100.00
44988;BME280;35735;52.226;21.254;2023-03-04T08:17:49;99544.00;;;1.84;100.00
44988;BME280;35735;52.226;21.254;2023-03-04T08:22:50;99546.72;;;1.89;100.00
44988;BME280;35735;52.226;21.254;2023-03-04T08:27:51;99531.62;;;1.86;100.00
44988;BME280;35735;52.226;21.254;2023-03-04T08:32:51;99537.09;;;1.95;100.00
44988;BME280;35735;52.226;21.254;2023-03-04T08:37:52;99537.22;;;2.00;100.00
44988;BME280;35735;52.226;21.254;2023-03-04T08:42:52;99530.25;;;2.07;100.00
44988;BME280;35735;52.226;21.254;2023-03-04T08:47:53;99532.12;;;2.11;100.00
44988;BME280;35735;52.226;21.254;2023-03-04T08:52:54;99530.31;;;2.10;100.00
44988;BME280;35735;52.226;21.254;2023-03-04T08:57:54;99519.53;;;2.03;100.00
44988;BME280;35735;52.226;21.254;2023-03-04T09:02:55;99523.16;;;2.06;100.00
44988;BME280;35735;52.226;21.254;2023-03-04T09:07:55;99531.19;;;2.10;100.00
44988;BME280;35735;52.226;21.254;2023-03-04T09:12:57;99520.56;;;2.10;100.00
44988;BME280;35735;52.226;21.254;2023-03-04T09:17:57;99526.81;;;2.14;100.00
44988;BME280;35735;52.226;21.254;2023-03-04T09:22:58;99503.03;;;2.21;100.00
44988;BME280;35735;52.226;21.254;2023-03-04T09:28:00;99500.53;;;2.29;100.00
44988;BME280;35735;52.226;21.254;2023-03-04T09:33:01;99499.84;;;2.41;100.00
44988;BME280;35735;52.226;21.254;2023-03-04T09:38:02;99501.72;;;2.47;100.00
44988;BME280;35735;52.226;21.254;2023-03-04T09:43:04;99506.31;;;2.57;100.00
44988;BME280;35735;52.226;21.254;2023-03-04T09:48:09;99485.06;;;2.60;100.00
44988;BME280;35735;52.226;21.254;2023-03-04T10:04:13;99476.97;;;2.54;100.00
44988;BME280;35735;52.226;21.254;2023-03-04T10:09:24;99476.16;;;2.58;100.00
44988;BME280;35735;52.226;21.254;2023-03-04T10:14:32;99482.28;;;2.52;100.00
44988;BME280;35735;52.226;21.254;2023-03-04T10:19:53;99468.88;;;2.48;100.00
44988;BME280;35735;52.226;21.254;2023-03-04T10:25:12;99474.22;;;2.48;100.00
44988;BME280;35735;52.226;21.254;2023-03-04T10:30:52;99466.31;;;2.54;100.00
44988;BME280;35735;52.226;21.254;2023-03-04T10:41:30;99454.88;;;2.59;100.00
44988;BME280;35735;52.226;21.254;2023-03-04T10:46:31;99444.22;;;2.59;100.00
44988;BME280;35735;52.226;21.254;2023-03-04T10:51:41;99434.41;;;2.58;100.00
44988;BME280;35735;52.226;21.254;2023-03-04T10:56:52;99438.00;;;2.59;100.00
44988;BME280;35735;52.226;21.254;2023-03-04T11:01:53;99419.38;;;2.62;100.00
44988;BME280;35735;52.226;21.254;2023-03-04T11:06:54;99435.38;;;2.62;100.00
44988;BME280;35735;52.226;21.254;2023-03-04T11:11:58;99441.62;;;2.63;100.00
44988;BME280;35735;52.226;21.254;2023-03-04T11:22:21;99422.13;;;2.67;100.00
44988;BME280;35735;52.226;21.254;2023-03-04T11:32:38;99404.44;;;2.72;100.00
44988;BME280;35735;52.226;21.254;2023-03-04T11:37:47;99413.25;;;2.66;100.00
44988;BME280;35735;52.226;21.254;2023-03-04T11:42:57;99404.34;;;2.67;100.00
44988;BME280;35735;52.226;21.254;2023-03-04T11:48:44;99391.94;;;2.66;100.00
44988;BME280;35735;52.226;21.254;2023-03-04T11:53:56;99383.87;;;2.63;100.00
44988;BME280;35735;52.226;21.254;2023-03-04T11:59:24;99380.31;;;2.61;100.00
44988;BME280;35735;52.226;21.254;2023-03-04T12:04:47;99381.19;;;2.62;100.00
44988;BME280;35735;52.226;21.254;2023-03-04T12:15:31;99378.50;;;2.60;100.00
44988;BME280;35735;52.226;21.254;2023-03-04T12:26:24;99385.69;;;2.64;100.00
44988;BME280;35735;52.226;21.254;2023-03-04T12:31:42;99380.38;;;2.66;100.00
44988;BME280;35735;52.226;21.254;2023-03-04T12:42:37;99390.31;;;2.76;100.00
44988;BME280;35735;52.226;21.254;2023-03-04T12:58:36;99377.47;;;3.11;100.00
44988;BME280;35735;52.226;21.254;2023-03-04T13:03:46;99367.00;;;3.27;100.00
44988;BME280;35735;52.226;21.254;2023-03-04T13:14:30;99362.13;;;3.67;100.00
44988;BME280;35735;52.226;21.254;2023-03-04T13:19:51;99373.81;;;3.80;100.00
44988;BME280;35735;52.226;21.254;2023-03-04T13:24:57;99364.19;;;3.96;100.00
44988;BME280;35735;52.226;21.254;2023-03-04T13:29:58;99360.75;;;4.06;100.00
44988;BME280;35735;52.226;21.254;2023-03-04T13:34:59;99363.38;;;4.01;100.00
44988;BME280;35735;52.226;21.254;2023-03-04T13:45:32;99369.56;;;3.99;100.00
44988;BME280;35735;52.226;21.254;2023-03-04T13:50:40;99421.94;;;3.87;100.00
44988;BME280;35735;52.226;21.254;2023-03-04T13:56:00;99399.16;;;3.39;100.00
44988;BME280;35735;52.226;21.254;2023-03-04T14:01:24;99389.53;;;2.85;100.00
44988;BME280;35735;52.226;21.254;2023-03-04T14:06:27;99361.44;;;2.47;100.00
44988;BME280;35735;52.226;21.254;2023-03-04T14:11:38;99357.62;;;2.30;100.00
44988;BME280;35735;52.226;21.254;2023-03-04T14:16:45;99343.25;;;2.20;100.00
44988;BME280;35735;52.226;21.254;2023-03-04T14:21:48;99355.75;;;2.24;100.00
44988;BME280;35735;52.226;21.254;2023-03-04T14:26:48;99354.00;;;2.26;100.00
44988;BME280;35735;52.226;21.254;2023-03-04T14:31:50;99355.88;;;2.32;100.00
44988;BME280;35735;52.226;21.254;2023-03-04T14:36:51;99352.38;;;2.34;100.00
44988;BME280;35735;52.226;21.254;2023-03-04T14:41:53;99350.63;;;2.36;100.00
44988;BME280;35735;52.226;21.254;2023-03-04T14:46:58;99356.88;;;2.40;100.00
44988;BME280;35735;52.226;21.254;2023-03-04T14:52:06;99362.28;;;2.45;100.00
44988;BME280;35735;52.226;21.254;2023-03-04T14:57:33;99382.72;;;2.47;100.00
44988;BME280;35735;52.226;21.254;2023-03-04T15:02:37;99376.56;;;2.50;100.00
44988;BME280;35735;52.226;21.254;2023-03-04T15:07:39;99389.03;;;2.51;100.00
44988;BME280;35735;52.226;21.254;2023-03-04T15:12:50;99394.38;;;2.51;100.00
44988;BME280;35735;52.226;21.254;2023-03-04T15:18:42;99398.78;;;2.52;100.00
44988;BME280;35735;52.226;21.254;2023-03-04T15:23:26;99402.44;;;2.57;100.00
44988;BME280;35735;52.226;21.254;2023-03-04T15:28:35;99408.66;;;2.56;100.00
44988;BME280;35735;52.226;21.254;2023-03-04T15:33:36;99415.72;;;2.55;100.00
44988;BME280;35735;52.226;21.254;2023-03-04T15:38:37;99452.19;;;2.58;99.89
44988;BME280;35735;52.226;21.254;2023-03-04T15:43:37;99476.94;;;2.51;98.03
44988;BME280;35735;52.226;21.254;2023-03-04T15:48:38;99502.19;;;2.24;96.31
44988;BME280;35735;52.226;21.254;2023-03-04T15:53:45;99519.34;;;1.93;95.72
44988;BME280;35735;52.226;21.254;2023-03-04T15:58:53;99534.03;;;1.75;95.14
44988;BME280;35735;52.226;21.254;2023-03-04T16:03:55;99542.69;;;1.65;95.94
44988;BME280;35735;52.226;21.254;2023-03-04T16:08:57;99536.34;;;1.58;95.99
44988;BME280;35735;52.226;21.254;2023-03-04T16:13:58;99564.31;;;1.41;93.49
44988;BME280;35735;52.226;21.254;2023-03-04T16:18:58;99572.97;;;1.31;93.04
44988;BME280;35735;52.226;21.254;2023-03-04T16:23:59;99583.47;;;1.26;92.48
44988;BME280;35735;52.226;21.254;2023-03-04T16:28:59;99593.16;;;1.22;92.75
44988;BME280;35735;52.226;21.254;2023-03-04T16:34:00;99591.97;;;1.11;90.38
44988;BME280;35735;52.226;21.254;2023-03-04T16:39:03;99614.75;;;1.01;90.36
44988;BME280;35735;52.226;21.254;2023-03-04T16:44:32;99628.75;;;0.94;90.58
44988;BME280;35735;52.226;21.254;2023-03-04T16:49:32;99642.72;;;0.85;86.98
44988;BME280;35735;52.226;21.254;2023-03-04T16:54:34;99640.59;;;0.72;85.20
44988;BME280;35735;52.226;21.254;2023-03-04T16:59:35;99651.72;;;0.59;83.72
44988;BME280;35735;52.226;21.254;2023-03-04T17:04:36;99651.47;;;0.49;83.32
44988;BME280;35735;52.226;21.254;2023-03-04T17:09:36;99661.81;;;0.40;82.06
44988;BME280;35735;52.226;21.254;2023-03-04T17:14:38;99669.44;;;0.28;80.81
44988;BME280;35735;52.226;21.254;2023-03-04T17:19:39;99690.47;;;0.22;79.18
44988;BME280;35735;52.226;21.254;2023-03-04T17:24:39;99707.22;;;0.19;79.87
44988;BME280;35735;52.226;21.254;2023-03-04T17:29:40;99705.25;;;0.13;79.16
44988;BME280;35735;52.226;21.254;2023-03-04T17:34:40;99710.50;;;0.10;79.42
44988;BME280;35735;52.226;21.254;2023-03-04T17:39:41;99724.56;;;0.08;77.34
44988;BME280;35735;52.226;21.254;2023-03-04T17:44:42;99723.47;;;0.01;76.27
44988;BME280;35735;52.226;21.254;2023-03-04T17:49:42;99738.34;;;-0.04;77.10
44988;BME280;35735;52.226;21.254;2023-03-04T17:54:44;99744.44;;;-0.08;76.94
44988;BME280;35735;52.226;21.254;2023-03-04T17:59:45;99753.84;;;-0.18;74.75
44988;BME280;35735;52.226;21.254;2023-03-04T18:04:46;99746.44;;;-0.28;73.33
44988;BME280;35735;52.226;21.254;2023-03-04T18:09:46;99758.53;;;-0.36;74.50
44988;BME280;35735;52.226;21.254;2023-03-04T18:14:47;99755.72;;;-0.41;73.49
44988;BME280;35735;52.226;21.254;2023-03-04T18:19:48;99749.37;;;-0.46;75.24
44988;BME280;35735;52.226;21.254;2023-03-04T18:24:48;99762.75;;;-0.43;75.43
44988;BME280;35735;52.226;21.254;2023-03-04T18:29:49;99766.81;;;-0.53;74.47
44988;BME280;35735;52.226;21.254;2023-03-04T18:34:50;99769.41;;;-0.54;75.58
44988;BME280;35735;52.226;21.254;2023-03-04T18:39:50;99779.13;;;-0.55;76.04
44988;BME280;35735;52.226;21.254;2023-03-04T18:44:51;99785.28;;;-0.56;76.71
44988;BME280;35735;52.226;21.254;2023-03-04T18:49:52;99787.87;;;-0.58;76.09
44988;BME280;35735;52.226;21.254;2023-03-04T18:54:53;99804.59;;;-0.59;76.99
44988;BME280;35735;52.226;21.254;2023-03-04T18:59:56;99801.00;;;-0.61;77.73
44988;BME280;35735;52.226;21.254;2023-03-04T19:05:02;99804.72;;;-0.56;78.06
44988;BME280;35735;52.226;21.254;2023-03-04T19:10:06;99801.41;;;-0.50;78.16
44988;BME280;35735;52.226;21.254;2023-03-04T19:15:08;99806.66;;;-0.51;78.33
44988;BME280;35735;52.226;21.254;2023-03-04T19:20:09;99807.38;;;-0.56;78.05
44988;BME280;35735;52.226;21.254;2023-03-04T19:25:11;99812.34;;;-0.39;78.84
44988;BME280;35735;52.226;21.254;2023-03-04T19:30:12;99814.53;;;-0.27;79.48
44988;BME280;35735;52.226;21.254;2023-03-04T19:35:13;99823.69;;;-0.17;79.45
44988;BME280;35735;52.226;21.254;2023-03-04T19:40:14;99823.69;;;-0.17;79.00
44988;BME280;35735;52.226;21.254;2023-03-04T19:45:15;99829.44;;;-0.31;78.33
44988;BME280;35735;52.226;21.254;2023-03-04T19:50:16;99835.56;;;-0.32;78.61
44988;BME280;35735;52.226;21.254;2023-03-04T19:55:17;99842.59;;;-0.34;78.95
44988;BME280;35735;52.226;21.254;2023-03-04T20:00:17;99840.03;;;-0.31;79.20
44988;BME280;35735;52.226;21.254;2023-03-04T20:05:18;99842.28;;;-0.43;78.60
44988;BME280;35735;52.226;21.254;2023-03-04T20:10:19;99843.66;;;-0.54;78.70
44988;BME280;35735;52.226;21.254;2023-03-04T20:15:19;99844.69;;;-0.75;78.41
44988;BME280;35735;52.226;21.254;2023-03-04T20:20:20;99858.56;;;-0.82;78.87
44988;BME280;35735;52.226;21.254;2023-03-04T20:25:21;99859.62;;;-0.77;79.66
44988;BME280;35735;52.226;21.254;2023-03-04T20:30:23;99859.00;;;-0.70;79.65
44988;BME280;35735;52.226;21.254;2023-03-04T20:35:24;99852.72;;;-0.72;79.75
44988;BME280;35735;52.226;21.254;2023-03-04T20:40:25;99864.09;;;-0.76;79.53
44988;BME280;35735;52.226;21.254;2023-03-04T20:45:25;99861.31;;;-0.79;79.43
44988;BME280;35735;52.226;21.254;2023-03-04T20:50:26;99854.72;;;-0.90;79.01
44988;BME280;35735;52.226;21.254;2023-03-04T20:55:27;99853.44;;;-1.02;79.05
44988;BME280;35735;52.226;21.254;2023-03-04T21:00:27;99852.97;;;-1.14;78.97
44988;BME280;35735;52.226;21.254;2023-03-04T21:05:29;99851.25;;;-1.12;79.42
44988;BME280;35735;52.226;21.254;2023-03-04T21:10:33;99846.72;;;-1.16;79.45
44988;BME280;35735;52.226;21.254;2023-03-04T21:15:34;99857.19;;;-1.19;79.31
44988;BME280;35735;52.226;21.254;2023-03-04T21:20:35;99846.47;;;-1.22;79.48
44988;BME280;35735;52.226;21.254;2023-03-04T21:25:35;99848.03;;;-1.27;79.47
44988;BME280;35735;52.226;21.254;2023-03-04T21:30:36;99847.91;;;-1.31;79.52
44988;BME280;35735;52.226;21.254;2023-03-04T21:35:36;99848.47;;;-1.39;79.28
44988;BME280;35735;52.226;21.254;2023-03-04T21:40:37;99857.16;;;-1.43;79.03
44988;BME280;35735;52.226;21.254;2023-03-04T21:45:38;99859.38;;;-1.54;78.92
44988;BME280;35735;52.226;21.254;2023-03-04T21:50:38;99860.81;;;-1.62;78.98
44988;BME280;35735;52.226;21.254;2023-03-04T21:55:41;99867.78;;;-1.64;79.08
44988;BME280;35735;52.226;21.254;2023-03-04T22:00:42;99871.50;;;-1.59;79.25
44988;BME280;35735;52.226;21.254;2023-03-04T22:05:43;99872.59;;;-1.54;79.81
44988;BME280;35735;52.226;21.254;2023-03-04T22:10:44;99864.66;;;-1.54;79.79
44988;BME280;35735;52.226;21.254;2023-03-04T22:15:46;99866.09;;;-1.62;79.54
44988;BME280;35735;52.226;21.254;2023-03-04T22:20:46;99871.78;;;-1.53;79.78
44988;BME280;35735;52.226;21.254;2023-03-04T22:25:47;99869.38;;;-1.47;79.70
44988;BME280;35735;52.226;21.254;2023-03-04T22:30:48;99870.87;;;-1.54;79.32
44988;BME280;35735;52.226;21.254;2023-03-04T22:35:50;99868.16;;;-1.55;79.20
44988;BME280;35735;52.226;21.254;2023-03-04T22:40:51;99860.75;;;-1.64;79.18
44988;BME280;35735;52.226;21.254;2023-03-04T22:45:52;99862.50;;;-1.64;79.42
44988;BME280;35735;52.226;21.254;2023-03-04T22:50:52;99856.37;;;-1.63;79.52
44988;BME280;35735;52.226;21.254;2023-03-04T22:55:57;99859.91;;;-1.63;79.43
44988;BME280;35735;52.226;21.254;2023-03-04T23:00:57;99860.47;;;-1.72;79.29
44988;BME280;35735;52.226;21.254;2023-03-04T23:06:00;99855.94;;;-1.74;79.45
44988;BME280;35735;52.226;21.254;2023-03-04T23:11:01;99864.66;;;-1.77;79.53
44988;BME280;35735;52.226;21.254;2023-03-04T23:16:11;99855.03;;;-1.75;79.71
44988;BME280;35735;52.226;21.254;2023-03-04T23:21:14;99860.06;;;-1.81;79.75
44988;BME280;35735;52.226;21.254;2023-03-04T23:26:27;99861.75;;;-1.83;79.79
44988;BME280;35735;52.226;21.254;2023-03-04T23:31:31;99858.84;;;-1.89;79.94
44988;BME280;35735;52.226;21.254;2023-03-04T23:36:34;99857.91;;;-1.91;80.16
44988;BME280;35735;52.226;21.254;2023-03-04T23:41:35;99852.59;;;-1.91;80.53
44988;BME280;35735;52.226;21.254;2023-03-04T23:46:36;99844.53;;;-1.94;80.27
44988;BME280;35735;52.226;21.254;2023-03-04T23:51:36;99849.81;;;-1.94;81.10
44988;BME280;35735;52.226;21.254;2023-03-04T23:56:37;99841.00;;;-1.95;80.75
